sensor_id;sensor_type;location;lat;lon;timestamp;temperature;humidity
80743;SHT31;70142;50.894;6.052;2024-02-04T00:00:09;10.59;87.69
80743;SHT31;70142;50.894;6.052;2024-02-04T00:02:47;10.57;88.01
80743;SHT31;70142;50.894;6.052;2024-02-04T00:05:20;10.53;87.92
80743;SHT31;70142;50.894;6.052;2024-02-04T00:07:54;10.55;88.08
80743;SHT31;70142;50.894;6.052;2024-02-04T00:10:27;10.43;88.04
80743;SHT31;70142;50.894;6.052;2024-02-04T00:13:02;10.53;88.12
80743;SHT31;70142;50.894;6.052;2024-02-04T00:15:35;10.60;87.82
80743;SHT31;70142;50.894;6.052;2024-02-04T00:18:08;10.50;88.09
80743;SHT31;70142;50.894;6.052;2024-02-04T00:20:42;10.43;88.35
80743;SHT31;70142;50.894;6.052;2024-02-04T00:23:15;10.40;88.44
80743;SHT31;70142;50.894;6.052;2024-02-04T00:25:48;10.40;88.49
80743;SHT31;70142;50.894;6.052;2024-02-04T00:28:23;10.37;88.79
80743;SHT31;70142;50.894;6.052;2024-02-04T00:30:57;10.45;88.69
80743;SHT31;70142;50.894;6.052;2024-02-04T00:33:31;10.46;88.60
80743;SHT31;70142;50.894;6.052;2024-02-04T00:36:05;10.45;88.59
80743;SHT31;70142;50.894;6.052;2024-02-04T00:38:38;10.53;88.35
80743;SHT31;70142;50.894;6.052;2024-02-04T00:41:11;10.45;88.45
80743;SHT31;70142;50.894;6.052;2024-02-04T00:43:46;10.47;88.33
80743;SHT31;70142;50.894;6.052;2024-02-04T00:46:19;10.55;88.17
80743;SHT31;70142;50.894;6.052;2024-02-04T00:48:52;10.50;88.27
80743;SHT31;70142;50.894;6.052;2024-02-04T00:51:26;10.46;88.32
80743;SHT31;70142;50.894;6.052;2024-02-04T00:53:59;10.50;88.33
80743;SHT31;70142;50.894;6.052;2024-02-04T00:56:32;10.53;88.36
80743;SHT31;70142;50.894;6.052;2024-02-04T00:59:07;10.45;88.44
80743;SHT31;70142;50.894;6.052;2024-02-04T01:01:40;10.52;88.49
80743;SHT31;70142;50.894;6.052;2024-02-04T01:04:14;10.47;88.43
80743;SHT31;70142;50.894;6.052;2024-02-04T01:06:48;10.46;88.57
80743;SHT31;70142;50.894;6.052;2024-02-04T01:09:32;10.45;88.56
80743;SHT31;70142;50.894;6.052;2024-02-04T01:12:05;10.43;88.74
80743;SHT31;70142;50.894;6.052;2024-02-04T01:14:40;10.47;88.63
80743;SHT31;70142;50.894;6.052;2024-02-04T01:17:13;10.46;88.66
80743;SHT31;70142;50.894;6.052;2024-02-04T01:19:46;10.43;88.76
80743;SHT31;70142;50.894;6.052;2024-02-04T01:22:20;10.46;88.81
80743;SHT31;70142;50.894;6.052;2024-02-04T01:24:57;10.50;88.61
80743;SHT31;70142;50.894;6.052;2024-02-04T01:27:30;10.50;88.60
80743;SHT31;70142;50.894;6.052;2024-02-04T01:30:06;10.49;88.73
80743;SHT31;70142;50.894;6.052;2024-02-04T01:32:40;10.49;88.75
80743;SHT31;70142;50.894;6.052;2024-02-04T01:35:13;10.49;88.74
80743;SHT31;70142;50.894;6.052;2024-02-04T01:37:47;10.55;88.69
80743;SHT31;70142;50.894;6.052;2024-02-04T01:40:21;10.52;88.74
80743;SHT31;70142;50.894;6.052;2024-02-04T01:42:54;10.53;88.73
80743;SHT31;70142;50.894;6.052;2024-02-04T01:45:29;10.50;88.65
80743;SHT31;70142;50.894;6.052;2024-02-04T01:48:03;10.55;88.55
80743;SHT31;70142;50.894;6.052;2024-02-04T01:50:37;10.61;88.69
80743;SHT31;70142;50.894;6.052;2024-02-04T01:53:11;10.56;88.72
80743;SHT31;70142;50.894;6.052;2024-02-04T01:55:44;10.55;88.87
80743;SHT31;70142;50.894;6.052;2024-02-04T01:58:17;10.55;88.69
80743;SHT31;70142;50.894;6.052;2024-02-04T02:00:52;10.55;88.86
80743;SHT31;70142;50.894;6.052;2024-02-04T02:03:26;10.55;88.86
80743;SHT31;70142;50.894;6.052;2024-02-04T02:05:59;10.50;88.95
80743;SHT31;70142;50.894;6.052;2024-02-04T02:08:33;10.57;88.97
80743;SHT31;70142;50.894;6.052;2024-02-04T02:11:12;10.60;88.85
80743;SHT31;70142;50.894;6.052;2024-02-04T02:13:53;10.67;88.64
80743;SHT31;70142;50.894;6.052;2024-02-04T02:16:32;10.69;88.61
80743;SHT31;70142;50.894;6.052;2024-02-04T02:19:21;10.70;88.55
80743;SHT31;70142;50.894;6.052;2024-02-04T02:22:06;10.71;88.56
80743;SHT31;70142;50.894;6.052;2024-02-04T02:24:51;10.70;88.63
80743;SHT31;70142;50.894;6.052;2024-02-04T02:27:24;10.73;88.63
80743;SHT31;70142;50.894;6.052;2024-02-04T02:29:57;10.73;88.50
80743;SHT31;70142;50.894;6.052;2024-02-04T02:32:31;10.61;88.76
80743;SHT31;70142;50.894;6.052;2024-02-04T02:35:04;10.67;88.83
80743;SHT31;70142;50.894;6.052;2024-02-04T02:37:43;10.61;88.86
80743;SHT31;70142;50.894;6.052;2024-02-04T02:40:24;10.69;88.84
80743;SHT31;70142;50.894;6.052;2024-02-04T02:43:02;10.67;88.80
80743;SHT31;70142;50.894;6.052;2024-02-04T02:45:38;10.66;88.78
80743;SHT31;70142;50.894;6.052;2024-02-04T02:48:13;10.69;88.89
80743;SHT31;70142;50.894;6.052;2024-02-04T02:50:47;10.69;88.82
80743;SHT31;70142;50.894;6.052;2024-02-04T02:53:20;10.69;88.78
80743;SHT31;70142;50.894;6.052;2024-02-04T02:55:55;10.71;88.84
80743;SHT31;70142;50.894;6.052;2024-02-04T02:58:28;10.74;88.66
80743;SHT31;70142;50.894;6.052;2024-02-04T03:01:01;10.73;88.79
80743;SHT31;70142;50.894;6.052;2024-02-04T03:03:35;10.73;88.74
80743;SHT31;70142;50.894;6.052;2024-02-04T03:06:08;10.74;88.68
80743;SHT31;70142;50.894;6.052;2024-02-04T03:08:41;10.77;88.71
80743;SHT31;70142;50.894;6.052;2024-02-04T03:11:16;10.80;88.71
80743;SHT31;70142;50.894;6.052;2024-02-04T03:13:51;10.80;88.46
80743;SHT31;70142;50.894;6.052;2024-02-04T03:16:24;10.85;88.43
80743;SHT31;70142;50.894;6.052;2024-02-04T03:18:58;10.76;88.75
80743;SHT31;70142;50.894;6.052;2024-02-04T03:21:31;10.85;88.51
80743;SHT31;70142;50.894;6.052;2024-02-04T03:24:05;10.87;88.53
80743;SHT31;70142;50.894;6.052;2024-02-04T03:26:40;10.79;88.52
80743;SHT31;70142;50.894;6.052;2024-02-04T03:29:13;10.79;88.56
80743;SHT31;70142;50.894;6.052;2024-02-04T03:31:46;10.76;88.60
80743;SHT31;70142;50.894;6.052;2024-02-04T03:34:19;10.80;88.63
80743;SHT31;70142;50.894;6.052;2024-02-04T03:36:53;10.81;88.54
80743;SHT31;70142;50.894;6.052;2024-02-04T03:39:27;10.85;88.47
80743;SHT31;70142;50.894;6.052;2024-02-04T03:42:01;10.81;88.47
80743;SHT31;70142;50.894;6.052;2024-02-04T03:44:35;10.76;88.58
80743;SHT31;70142;50.894;6.052;2024-02-04T03:47:08;10.79;88.60
80743;SHT31;70142;50.894;6.052;2024-02-04T03:49:41;10.77;88.60
80743;SHT31;70142;50.894;6.052;2024-02-04T03:52:14;10.81;88.49
80743;SHT31;70142;50.894;6.052;2024-02-04T03:54:47;10.79;88.57
80743;SHT31;70142;50.894;6.052;2024-02-04T03:57:22;10.87;88.29
80743;SHT31;70142;50.894;6.052;2024-02-04T03:59:55;10.80;88.34
80743;SHT31;70142;50.894;6.052;2024-02-04T04:02:28;10.77;88.50
80743;SHT31;70142;50.894;6.052;2024-02-04T04:05:02;10.81;88.50
80743;SHT31;70142;50.894;6.052;2024-02-04T04:07:35;10.76;88.46
80743;SHT31;70142;50.894;6.052;2024-02-04T04:10:08;10.79;88.51
80743;SHT31;70142;50.894;6.052;2024-02-04T04:12:43;10.84;88.24
80743;SHT31;70142;50.894;6.052;2024-02-04T04:15:16;10.87;88.31
80743;SHT31;70142;50.894;6.052;2024-02-04T04:17:50;10.84;88.15
80743;SHT31;70142;50.894;6.052;2024-02-04T04:20:23;10.84;88.26
80743;SHT31;70142;50.894;6.052;2024-02-04T04:22:56;10.80;88.39
80743;SHT31;70142;50.894;6.052;2024-02-04T04:25:29;10.85;88.39
80743;SHT31;70142;50.894;6.052;2024-02-04T04:28:06;10.85;88.23
80743;SHT31;70142;50.894;6.052;2024-02-04T04:30:39;10.91;88.08
80743;SHT31;70142;50.894;6.052;2024-02-04T04:33:15;10.87;88.08
80743;SHT31;70142;50.894;6.052;2024-02-04T04:35:48;10.84;88.16
80743;SHT31;70142;50.894;6.052;2024-02-04T04:38:21;10.81;88.22
80743;SHT31;70142;50.894;6.052;2024-02-04T04:40:54;10.84;88.19
80743;SHT31;70142;50.894;6.052;2024-02-04T04:43:29;10.89;88.01
80743;SHT31;70142;50.894;6.052;2024-02-04T04:46:02;10.83;88.16
80743;SHT31;70142;50.894;6.052;2024-02-04T04:48:36;10.80;88.20
80743;SHT31;70142;50.894;6.052;2024-02-04T04:51:11;10.80;88.20
80743;SHT31;70142;50.894;6.052;2024-02-04T04:53:45;10.84;88.20
80743;SHT31;70142;50.894;6.052;2024-02-04T04:56:18;10.94;88.03
80743;SHT31;70142;50.894;6.052;2024-02-04T04:58:52;10.89;87.99
80743;SHT31;70142;50.894;6.052;2024-02-04T05:01:28;10.91;88.11
80743;SHT31;70142;50.894;6.052;2024-02-04T05:04:01;10.85;88.06
80743;SHT31;70142;50.894;6.052;2024-02-04T05:06:34;10.93;87.87
80743;SHT31;70142;50.894;6.052;2024-02-04T05:09:08;10.96;87.87
80743;SHT31;70142;50.894;6.052;2024-02-04T05:11:41;10.89;87.92
80743;SHT31;70142;50.894;6.052;2024-02-04T05:14:16;10.84;88.01
80743;SHT31;70142;50.894;6.052;2024-02-04T05:16:49;10.94;88.08
80743;SHT31;70142;50.894;6.052;2024-02-04T05:19:22;10.91;87.87
80743;SHT31;70142;50.894;6.052;2024-02-04T05:21:55;10.93;87.85
80743;SHT31;70142;50.894;6.052;2024-02-04T05:24:29;10.90;87.95
80743;SHT31;70142;50.894;6.052;2024-02-04T05:27:02;10.93;87.91
80743;SHT31;70142;50.894;6.052;2024-02-04T05:29:37;10.96;87.79
80743;SHT31;70142;50.894;6.052;2024-02-04T05:32:10;10.89;87.90
80743;SHT31;70142;50.894;6.052;2024-02-04T05:34:43;10.85;87.82
80743;SHT31;70142;50.894;6.052;2024-02-04T05:37:17;10.81;88.01
80743;SHT31;70142;50.894;6.052;2024-02-04T05:39:50;10.89;88.01
80743;SHT31;70142;50.894;6.052;2024-02-04T05:42:24;10.91;87.78
80743;SHT31;70142;50.894;6.052;2024-02-04T05:44:59;10.91;87.69
80743;SHT31;70142;50.894;6.052;2024-02-04T05:47:32;10.87;87.99
80743;SHT31;70142;50.894;6.052;2024-02-04T05:50:06;10.85;87.88
80743;SHT31;70142;50.894;6.052;2024-02-04T05:52:40;10.93;87.82
80743;SHT31;70142;50.894;6.052;2024-02-04T05:55:13;10.79;88.07
80743;SHT31;70142;50.894;6.052;2024-02-04T05:57:46;10.79;88.06
80743;SHT31;70142;50.894;6.052;2024-02-04T06:00:21;10.87;88.08
80743;SHT31;70142;50.894;6.052;2024-02-04T06:02:54;10.84;87.94
80743;SHT31;70142;50.894;6.052;2024-02-04T06:05:30;10.79;88.38
80743;SHT31;70142;50.894;6.052;2024-02-04T06:08:03;10.81;88.18
80743;SHT31;70142;50.894;6.052;2024-02-04T06:10:37;10.74;88.21
80743;SHT31;70142;50.894;6.052;2024-02-04T06:13:10;10.77;88.17
80743;SHT31;70142;50.894;6.052;2024-02-04T06:15:44;10.91;87.91
80743;SHT31;70142;50.894;6.052;2024-02-04T06:18:18;10.79;87.89
80743;SHT31;70142;50.894;6.052;2024-02-04T06:20:51;10.80;88.10
80743;SHT31;70142;50.894;6.052;2024-02-04T06:23:24;10.87;88.01
80743;SHT31;70142;50.894;6.052;2024-02-04T06:25:57;10.80;88.16
80743;SHT31;70142;50.894;6.052;2024-02-04T06:28:30;10.80;88.04
80743;SHT31;70142;50.894;6.052;2024-02-04T06:31:08;10.76;88.35
80743;SHT31;70142;50.894;6.052;2024-02-04T06:33:41;10.79;88.28
80743;SHT31;70142;50.894;6.052;2024-02-04T06:36:15;10.76;88.30
80743;SHT31;70142;50.894;6.052;2024-02-04T06:38:48;10.73;88.36
80743;SHT31;70142;50.894;6.052;2024-02-04T06:41:21;10.73;88.30
80743;SHT31;70142;50.894;6.052;2024-02-04T06:43:55;10.83;88.25
80743;SHT31;70142;50.894;6.052;2024-02-04T06:46:30;10.73;88.32
80743;SHT31;70142;50.894;6.052;2024-02-04T06:49:03;10.76;88.24
80743;SHT31;70142;50.894;6.052;2024-02-04T06:51:36;10.67;88.60
80743;SHT31;70142;50.894;6.052;2024-02-04T06:54:12;10.64;88.59
80743;SHT31;70142;50.894;6.052;2024-02-04T06:56:45;10.71;88.52
80743;SHT31;70142;50.894;6.052;2024-02-04T06:59:18;10.69;88.52
80743;SHT31;70142;50.894;6.052;2024-02-04T07:01:53;10.71;88.53
80743;SHT31;70142;50.894;6.052;2024-02-04T07:04:26;10.70;88.48
80743;SHT31;70142;50.894;6.052;2024-02-04T07:06:59;10.71;88.30
80743;SHT31;70142;50.894;6.052;2024-02-04T07:09:33;10.76;88.34
80743;SHT31;70142;50.894;6.052;2024-02-04T07:12:06;10.71;88.33
80743;SHT31;70142;50.894;6.052;2024-02-04T07:14:39;10.64;88.46
80743;SHT31;70142;50.894;6.052;2024-02-04T07:17:14;10.70;88.36
80743;SHT31;70142;50.894;6.052;2024-02-04T07:19:47;10.67;88.47
80743;SHT31;70142;50.894;6.052;2024-02-04T07:22:20;10.66;88.41
80743;SHT31;70142;50.894;6.052;2024-02-04T07:24:54;10.69;88.27
80743;SHT31;70142;50.894;6.052;2024-02-04T07:27:30;10.74;88.23
80743;SHT31;70142;50.894;6.052;2024-02-04T07:30:05;10.70;88.09
80743;SHT31;70142;50.894;6.052;2024-02-04T07:32:40;10.77;88.04
80743;SHT31;70142;50.894;6.052;2024-02-04T07:35:13;10.77;88.04
80743;SHT31;70142;50.894;6.052;2024-02-04T07:37:46;10.83;87.76
80743;SHT31;70142;50.894;6.052;2024-02-04T07:40:22;10.84;87.78
80743;SHT31;70142;50.894;6.052;2024-02-04T07:42:55;10.77;88.08
80743;SHT31;70142;50.894;6.052;2024-02-04T07:45:28;10.87;87.89
80743;SHT31;70142;50.894;6.052;2024-02-04T07:48:03;10.87;87.73
80743;SHT31;70142;50.894;6.052;2024-02-04T07:50:36;10.83;87.92
80743;SHT31;70142;50.894;6.052;2024-02-04T07:53:10;10.87;87.84
80743;SHT31;70142;50.894;6.052;2024-02-04T07:55:43;10.79;87.99
80743;SHT31;70142;50.894;6.052;2024-02-04T07:58:16;10.77;87.81
80743;SHT31;70142;50.894;6.052;2024-02-04T08:00:49;10.85;87.87
80743;SHT31;70142;50.894;6.052;2024-02-04T08:03:24;10.97;87.73
80743;SHT31;70142;50.894;6.052;2024-02-04T08:06:01;10.93;87.75
80743;SHT31;70142;50.894;6.052;2024-02-04T08:08:34;10.90;87.96
80743;SHT31;70142;50.894;6.052;2024-02-04T08:11:09;10.89;88.09
80743;SHT31;70142;50.894;6.052;2024-02-04T08:13:43;10.96;87.82
80743;SHT31;70142;50.894;6.052;2024-02-04T08:16:16;10.91;87.90
80743;SHT31;70142;50.894;6.052;2024-02-04T08:18:50;10.81;88.10
80743;SHT31;70142;50.894;6.052;2024-02-04T08:21:24;10.81;87.89
80743;SHT31;70142;50.894;6.052;2024-02-04T08:23:57;10.74;88.19
80743;SHT31;70142;50.894;6.052;2024-02-04T08:26:30;10.73;88.48
80743;SHT31;70142;50.894;6.052;2024-02-04T08:29:04;10.79;88.26
80743;SHT31;70142;50.894;6.052;2024-02-04T08:31:37;10.73;88.22
80743;SHT31;70142;50.894;6.052;2024-02-04T08:34:12;10.77;88.27
80743;SHT31;70142;50.894;6.052;2024-02-04T08:36:45;10.85;88.15
80743;SHT31;70142;50.894;6.052;2024-02-04T08:39:18;10.91;87.93
80743;SHT31;70142;50.894;6.052;2024-02-04T08:41:51;10.84;88.02
80743;SHT31;70142;50.894;6.052;2024-02-04T08:44:24;10.90;88.09
80743;SHT31;70142;50.894;6.052;2024-02-04T08:47:10;10.87;88.01
80743;SHT31;70142;50.894;6.052;2024-02-04T08:49:47;10.83;88.11
80743;SHT31;70142;50.894;6.052;2024-02-04T08:52:20;10.84;88.30
80743;SHT31;70142;50.894;6.052;2024-02-04T08:54:54;10.94;88.16
80743;SHT31;70142;50.894;6.052;2024-02-04T08:57:27;10.87;87.95
80743;SHT31;70142;50.894;6.052;2024-02-04T09:00:00;10.85;87.94
80743;SHT31;70142;50.894;6.052;2024-02-04T09:02:34;10.90;88.05
80743;SHT31;70142;50.894;6.052;2024-02-04T09:05:09;10.90;88.03
80743;SHT31;70142;50.894;6.052;2024-02-04T09:07:42;10.97;87.80
80743;SHT31;70142;50.894;6.052;2024-02-04T09:10:15;10.96;88.00
80743;SHT31;70142;50.894;6.052;2024-02-04T09:12:51;10.91;87.90
80743;SHT31;70142;50.894;6.052;2024-02-04T09:15:24;10.85;87.91
80743;SHT31;70142;50.894;6.052;2024-02-04T09:17:58;10.89;87.89
80743;SHT31;70142;50.894;6.052;2024-02-04T09:20:32;10.91;87.90
80743;SHT31;70142;50.894;6.052;2024-02-04T09:23:06;10.87;88.16
80743;SHT31;70142;50.894;6.052;2024-02-04T09:25:39;10.93;88.13
80743;SHT31;70142;50.894;6.052;2024-02-04T09:28:12;10.94;87.89
80743;SHT31;70142;50.894;6.052;2024-02-04T09:30:45;10.84;88.03
80743;SHT31;70142;50.894;6.052;2024-02-04T09:33:19;10.81;88.22
80743;SHT31;70142;50.894;6.052;2024-02-04T09:35:54;10.91;88.02
80743;SHT31;70142;50.894;6.052;2024-02-04T09:38:27;11.06;87.91
80743;SHT31;70142;50.894;6.052;2024-02-04T09:41:00;11.17;87.70
80743;SHT31;70142;50.894;6.052;2024-02-04T09:43:35;11.25;87.03
80743;SHT31;70142;50.894;6.052;2024-02-04T09:46:10;11.20;86.92
80743;SHT31;70142;50.894;6.052;2024-02-04T09:48:45;11.35;86.87
80743;SHT31;70142;50.894;6.052;2024-02-04T09:51:20;11.32;86.53
80743;SHT31;70142;50.894;6.052;2024-02-04T09:53:53;11.34;86.78
80743;SHT31;70142;50.894;6.052;2024-02-04T09:56:28;11.27;86.90
80743;SHT31;70142;50.894;6.052;2024-02-04T09:59:03;11.18;87.15
80743;SHT31;70142;50.894;6.052;2024-02-04T10:01:38;11.10;87.35
80743;SHT31;70142;50.894;6.052;2024-02-04T10:04:11;11.11;87.41
80743;SHT31;70142;50.894;6.052;2024-02-04T10:06:46;11.12;87.50
80743;SHT31;70142;50.894;6.052;2024-02-04T10:09:20;11.21;87.54
80743;SHT31;70142;50.894;6.052;2024-02-04T10:11:53;11.20;87.42
80743;SHT31;70142;50.894;6.052;2024-02-04T10:14:27;11.10;87.63
80743;SHT31;70142;50.894;6.052;2024-02-04T10:17:00;11.21;87.73
80743;SHT31;70142;50.894;6.052;2024-02-04T10:19:33;11.14;87.89
80743;SHT31;70142;50.894;6.052;2024-02-04T10:22:08;11.00;87.89
80743;SHT31;70142;50.894;6.052;2024-02-04T10:24:41;11.06;87.96
80743;SHT31;70142;50.894;6.052;2024-02-04T10:27:15;11.00;87.76
80743;SHT31;70142;50.894;6.052;2024-02-04T10:30:00;11.01;87.89
80743;SHT31;70142;50.894;6.052;2024-02-04T10:32:34;10.91;88.13
80743;SHT31;70142;50.894;6.052;2024-02-04T10:35:07;10.97;88.06
80743;SHT31;70142;50.894;6.052;2024-02-04T10:37:42;11.06;87.99
80743;SHT31;70142;50.894;6.052;2024-02-04T10:40:15;11.10;87.71
80743;SHT31;70142;50.894;6.052;2024-02-04T10:42:50;11.04;87.95
80743;SHT31;70142;50.894;6.052;2024-02-04T10:45:30;10.93;88.18
80743;SHT31;70142;50.894;6.052;2024-02-04T10:48:06;10.94;88.14
80743;SHT31;70142;50.894;6.052;2024-02-04T10:50:43;10.96;87.80
80743;SHT31;70142;50.894;6.052;2024-02-04T10:53:22;10.99;87.46
80743;SHT31;70142;50.894;6.052;2024-02-04T10:56:00;11.11;87.50
80743;SHT31;70142;50.894;6.052;2024-02-04T10:58:37;11.14;87.11
80743;SHT31;70142;50.894;6.052;2024-02-04T11:01:10;11.28;86.67
80743;SHT31;70142;50.894;6.052;2024-02-04T11:03:45;11.15;86.40
80743;SHT31;70142;50.894;6.052;2024-02-04T11:06:20;11.21;86.62
80743;SHT31;70142;50.894;6.052;2024-02-04T11:08:56;11.22;86.55
80743;SHT31;70142;50.894;6.052;2024-02-04T11:11:31;11.34;86.21
80743;SHT31;70142;50.894;6.052;2024-02-04T11:14:09;11.24;86.50
80743;SHT31;70142;50.894;6.052;2024-02-04T11:17:04;11.24;86.61
80743;SHT31;70142;50.894;6.052;2024-02-04T11:19:57;11.22;86.59
80743;SHT31;70142;50.894;6.052;2024-02-04T11:22:55;11.21;86.62
80743;SHT31;70142;50.894;6.052;2024-02-04T11:25:44;11.17;87.03
80743;SHT31;70142;50.894;6.052;2024-02-04T11:28:20;11.17;87.08
80743;SHT31;70142;50.894;6.052;2024-02-04T11:30:54;11.21;87.17
80743;SHT31;70142;50.894;6.052;2024-02-04T11:33:28;11.14;87.24
80743;SHT31;70142;50.894;6.052;2024-02-04T11:36:03;11.15;87.21
80743;SHT31;70142;50.894;6.052;2024-02-04T11:38:39;11.15;87.32
80743;SHT31;70142;50.894;6.052;2024-02-04T11:41:22;11.07;87.44
80743;SHT31;70142;50.894;6.052;2024-02-04T11:43:56;11.11;87.50
80743;SHT31;70142;50.894;6.052;2024-02-04T11:46:33;11.11;87.63
80743;SHT31;70142;50.894;6.052;2024-02-04T11:49:14;11.11;87.71
80743;SHT31;70142;50.894;6.052;2024-02-04T11:51:51;11.07;87.47
80743;SHT31;70142;50.894;6.052;2024-02-04T11:54:25;10.99;87.46
80743;SHT31;70142;50.894;6.052;2024-02-04T11:57:00;11.03;87.70
80743;SHT31;70142;50.894;6.052;2024-02-04T11:59:33;10.94;87.74
80743;SHT31;70142;50.894;6.052;2024-02-04T12:02:07;10.99;87.68
80743;SHT31;70142;50.894;6.052;2024-02-04T12:04:42;10.91;87.79
80743;SHT31;70142;50.894;6.052;2024-02-04T12:07:16;11.00;87.80
80743;SHT31;70142;50.894;6.052;2024-02-04T12:09:51;11.03;87.45
80743;SHT31;70142;50.894;6.052;2024-02-04T12:12:27;10.99;87.60
80743;SHT31;70142;50.894;6.052;2024-02-04T12:15:01;10.96;87.75
80743;SHT31;70142;50.894;6.052;2024-02-04T12:17:36;10.94;87.78
80743;SHT31;70142;50.894;6.052;2024-02-04T12:20:10;10.91;87.73
80743;SHT31;70142;50.894;6.052;2024-02-04T12:22:43;10.89;87.67
80743;SHT31;70142;50.894;6.052;2024-02-04T12:25:17;10.96;87.81
80743;SHT31;70142;50.894;6.052;2024-02-04T12:27:52;10.96;87.71
80743;SHT31;70142;50.894;6.052;2024-02-04T12:30:26;10.93;87.74
80743;SHT31;70142;50.894;6.052;2024-02-04T12:33:01;11.00;87.81
80743;SHT31;70142;50.894;6.052;2024-02-04T12:35:36;11.00;87.81
80743;SHT31;70142;50.894;6.052;2024-02-04T12:38:10;10.87;87.82
80743;SHT31;70142;50.894;6.052;2024-02-04T12:40:43;10.94;88.01
80743;SHT31;70142;50.894;6.052;2024-02-04T12:43:18;10.94;87.82
80743;SHT31;70142;50.894;6.052;2024-02-04T12:45:56;10.96;87.97
80743;SHT31;70142;50.894;6.052;2024-02-04T12:48:31;10.93;88.04
80743;SHT31;70142;50.894;6.052;2024-02-04T12:51:04;10.96;88.09
80743;SHT31;70142;50.894;6.052;2024-02-04T12:53:38;10.91;87.96
80743;SHT31;70142;50.894;6.052;2024-02-04T12:56:11;10.97;88.09
80743;SHT31;70142;50.894;6.052;2024-02-04T12:58:45;10.91;88.09
80743;SHT31;70142;50.894;6.052;2024-02-04T13:01:19;10.91;88.20
80743;SHT31;70142;50.894;6.052;2024-02-04T13:03:55;10.93;88.04
80743;SHT31;70142;50.894;6.052;2024-02-04T13:06:28;10.94;88.19
80743;SHT31;70142;50.894;6.052;2024-02-04T13:09:02;10.91;88.26
80743;SHT31;70142;50.894;6.052;2024-02-04T13:11:38;11.06;88.13
80743;SHT31;70142;50.894;6.052;2024-02-04T13:14:12;11.00;88.15
80743;SHT31;70142;50.894;6.052;2024-02-04T13:16:45;11.12;88.13
80743;SHT31;70142;50.894;6.052;2024-02-04T13:19:20;11.08;87.82
80743;SHT31;70142;50.894;6.052;2024-02-04T13:21:53;11.18;87.87
80743;SHT31;70142;50.894;6.052;2024-02-04T13:24:27;11.08;87.92
80743;SHT31;70142;50.894;6.052;2024-02-04T13:27:00;11.22;87.92
80743;SHT31;70142;50.894;6.052;2024-02-04T13:29:36;11.24;87.69
80743;SHT31;70142;50.894;6.052;2024-02-04T13:32:09;11.17;87.70
80743;SHT31;70142;50.894;6.052;2024-02-04T13:34:42;11.07;87.77
80743;SHT31;70142;50.894;6.052;2024-02-04T13:37:16;11.06;87.89
80743;SHT31;70142;50.894;6.052;2024-02-04T13:39:49;11.03;87.86
80743;SHT31;70142;50.894;6.052;2024-02-04T13:42:22;11.10;87.77
80743;SHT31;70142;50.894;6.052;2024-02-04T13:44:57;11.11;87.88
80743;SHT31;70142;50.894;6.052;2024-02-04T13:47:30;11.08;87.97
80743;SHT31;70142;50.894;6.052;2024-02-04T13:50:04;11.22;87.90
80743;SHT31;70142;50.894;6.052;2024-02-04T13:52:40;11.11;87.63
80743;SHT31;70142;50.894;6.052;2024-02-04T13:55:13;11.14;88.03
80743;SHT31;70142;50.894;6.052;2024-02-04T13:57:47;11.08;87.86
80743;SHT31;70142;50.894;6.052;2024-02-04T14:00:21;11.15;87.74
80743;SHT31;70142;50.894;6.052;2024-02-04T14:02:54;11.22;87.74
80743;SHT31;70142;50.894;6.052;2024-02-04T14:05:28;11.08;87.98
80743;SHT31;70142;50.894;6.052;2024-02-04T14:08:05;11.17;87.69
80743;SHT31;70142;50.894;6.052;2024-02-04T14:10:40;11.11;87.67
80743;SHT31;70142;50.894;6.052;2024-02-04T14:13:14;11.22;87.86
80743;SHT31;70142;50.894;6.052;2024-02-04T14:15:48;11.22;87.54
80743;SHT31;70142;50.894;6.052;2024-02-04T14:18:22;11.17;87.60
80743;SHT31;70142;50.894;6.052;2024-02-04T14:20:55;11.21;87.66
80743;SHT31;70142;50.894;6.052;2024-02-04T14:23:28;11.25;87.78
80743;SHT31;70142;50.894;6.052;2024-02-04T14:26:01;11.18;87.73
80743;SHT31;70142;50.894;6.052;2024-02-04T14:28:37;11.15;87.84
80743;SHT31;70142;50.894;6.052;2024-02-04T14:31:14;11.18;88.01
80743;SHT31;70142;50.894;6.052;2024-02-04T14:33:48;11.30;87.84
80743;SHT31;70142;50.894;6.052;2024-02-04T14:36:21;11.24;87.86
80743;SHT31;70142;50.894;6.052;2024-02-04T14:38:54;11.21;87.65
80743;SHT31;70142;50.894;6.052;2024-02-04T14:41:29;11.21;87.63
80743;SHT31;70142;50.894;6.052;2024-02-04T14:44:02;11.24;87.68
80743;SHT31;70142;50.894;6.052;2024-02-04T14:46:37;11.28;87.59
80743;SHT31;70142;50.894;6.052;2024-02-04T14:49:10;11.32;87.65
80743;SHT31;70142;50.894;6.052;2024-02-04T14:51:44;11.34;87.75
80743;SHT31;70142;50.894;6.052;2024-02-04T14:54:17;11.36;87.50
80743;SHT31;70142;50.894;6.052;2024-02-04T14:56:50;11.36;87.46
80743;SHT31;70142;50.894;6.052;2024-02-04T14:59:24;11.30;87.59
80743;SHT31;70142;50.894;6.052;2024-02-04T15:01:59;11.28;87.58
80743;SHT31;70142;50.894;6.052;2024-02-04T15:04:33;11.20;87.80
80743;SHT31;70142;50.894;6.052;2024-02-04T15:07:07;11.24;87.82
80743;SHT31;70142;50.894;6.052;2024-02-04T15:09:40;11.21;87.54
80743;SHT31;70142;50.894;6.052;2024-02-04T15:12:14;11.32;87.16
80743;SHT31;70142;50.894;6.052;2024-02-04T15:14:48;11.25;86.94
80743;SHT31;70142;50.894;6.052;2024-02-04T15:17:25;11.35;86.73
80743;SHT31;70142;50.894;6.052;2024-02-04T15:19:59;11.38;86.64
80743;SHT31;70142;50.894;6.052;2024-02-04T15:22:35;11.39;86.52
80743;SHT31;70142;50.894;6.052;2024-02-04T15:25:09;11.45;86.46
80743;SHT31;70142;50.894;6.052;2024-02-04T15:27:48;11.50;86.55
80743;SHT31;70142;50.894;6.052;2024-02-04T15:30:24;11.51;86.41
80743;SHT31;70142;50.894;6.052;2024-02-04T15:33:00;11.34;86.33
80743;SHT31;70142;50.894;6.052;2024-02-04T15:35:33;11.30;86.66
80743;SHT31;70142;50.894;6.052;2024-02-04T15:38:07;11.30;86.86
80743;SHT31;70142;50.894;6.052;2024-02-04T15:40:40;11.30;86.78
80743;SHT31;70142;50.894;6.052;2024-02-04T15:43:13;11.25;86.94
80743;SHT31;70142;50.894;6.052;2024-02-04T15:45:47;11.27;87.13
80743;SHT31;70142;50.894;6.052;2024-02-04T15:48:28;11.21;87.31
80743;SHT31;70142;50.894;6.052;2024-02-04T15:51:03;11.15;87.66
80743;SHT31;70142;50.894;6.052;2024-02-04T15:53:38;11.06;88.00
80743;SHT31;70142;50.894;6.052;2024-02-04T15:56:11;11.12;88.13
80743;SHT31;70142;50.894;6.052;2024-02-04T15:58:46;11.03;88.11
80743;SHT31;70142;50.894;6.052;2024-02-04T16:01:23;11.11;88.15
80743;SHT31;70142;50.894;6.052;2024-02-04T16:04:00;11.10;87.84
80743;SHT31;70142;50.894;6.052;2024-02-04T16:06:34;11.06;87.95
80743;SHT31;70142;50.894;6.052;2024-02-04T16:09:09;11.17;87.88
80743;SHT31;70142;50.894;6.052;2024-02-04T16:11:49;11.15;87.62
80743;SHT31;70142;50.894;6.052;2024-02-04T16:14:26;11.21;87.37